sensor_id;sensor_type;location;lat;lon;timestamp;P1;durP1;ratioP1;P2;durP2;ratioP2
8909;SDS011;4490;49.072;8.804;2023-05-21T00:02:02;20.27;;;18.10;;
8909;SDS011;4490;49.072;8.804;2023-05-21T00:04:28;21.60;;;19.30;;
8909;SDS011;4490;49.072;8.804;2023-05-21T00:06:56;21.30;;;19.13;;
8909;SDS011;4490;49.072;8.804;2023-05-21T00:09:25;23.17;;;20.27;;
8909;SDS011;4490;49.072;8.804;2023-05-21T00:11:50;26.03;;;20.10;;
8909;SDS011;4490;49.072;8.804;2023-05-21T00:14:16;23.60;;;21.10;;
8909;SDS011;4490;49.072;8.804;2023-05-21T00:16:42;22.20;;;19.90;;
8909;SDS011;4490;49.072;8.804;2023-05-21T00:19:08;22.57;;;20.13;;
8909;SDS011;4490;49.072;8.804;2023-05-21T00:21:34;24.40;;;21.90;;
8909;SDS011;4490;49.072;8.804;2023-05-21T00:24:00;24.10;;;21.60;;
8909;SDS011;4490;49.072;8.804;2023-05-21T00:26:25;23.47;;;20.97;;
8909;SDS011;4490;49.072;8.804;2023-05-21T00:28:51;23.93;;;21.47;;
8909;SDS011;4490;49.072;8.804;2023-05-21T00:31:16;26.13;;;22.20;;
8909;SDS011;4490;49.072;8.804;2023-05-21T00:33:42;23.43;;;20.97;;
8909;SDS011;4490;49.072;8.804;2023-05-21T00:36:08;24.80;;;22.17;;
8909;SDS011;4490;49.072;8.804;2023-05-21T00:38:38;26.07;;;22.23;;
8909;SDS011;4490;49.072;8.804;2023-05-21T00:41:10;25.40;;;22.10;;
8909;SDS011;4490;49.072;8.804;2023-05-21T00:43:36;23.90;;;21.50;;
8909;SDS011;4490;49.072;8.804;2023-05-21T00:46:06;24.13;;;21.57;;
8909;SDS011;4490;49.072;8.804;2023-05-21T00:48:32;24.80;;;21.23;;
8909;SDS011;4490;49.072;8.804;2023-05-21T00:50:59;24.70;;;21.70;;
8909;SDS011;4490;49.072;8.804;2023-05-21T00:53:24;23.90;;;21.40;;
8909;SDS011;4490;49.072;8.804;2023-05-21T00:55:51;24.23;;;21.60;;
8909;SDS011;4490;49.072;8.804;2023-05-21T00:58:17;24.37;;;21.57;;
8909;SDS011;4490;49.072;8.804;2023-05-21T01:00:43;26.27;;;21.67;;
8909;SDS011;4490;49.072;8.804;2023-05-21T01:03:09;23.90;;;21.40;;
8909;SDS011;4490;49.072;8.804;2023-05-21T01:05:36;25.27;;;21.57;;
8909;SDS011;4490;49.072;8.804;2023-05-21T01:08:02;24.10;;;21.50;;
8909;SDS011;4490;49.072;8.804;2023-05-21T01:10:28;24.30;;;21.60;;
8909;SDS011;4490;49.072;8.804;2023-05-21T01:12:54;28.17;;;22.87;;
8909;SDS011;4490;49.072;8.804;2023-05-21T01:15:22;27.00;;;22.83;;
8909;SDS011;4490;49.072;8.804;2023-05-21T01:17:48;26.23;;;22.77;;
8909;SDS011;4490;49.072;8.804;2023-05-21T01:20:15;25.60;;;22.57;;
8909;SDS011;4490;49.072;8.804;2023-05-21T01:25:18;25.27;;;22.63;;
8909;SDS011;4490;49.072;8.804;2023-05-21T01:27:44;24.97;;;22.20;;
8909;SDS011;4490;49.072;8.804;2023-05-21T01:30:10;26.07;;;23.03;;
8909;SDS011;4490;49.072;8.804;2023-05-21T01:32:37;26.30;;;23.27;;
8909;SDS011;4490;49.072;8.804;2023-05-21T01:35:28;25.23;;;22.53;;
8909;SDS011;4490;49.072;8.804;2023-05-21T01:38:04;26.53;;;22.73;;
8909;SDS011;4490;49.072;8.804;2023-05-21T01:43:11;28.13;;;22.63;;
8909;SDS011;4490;49.072;8.804;2023-05-21T01:45:39;25.67;;;22.80;;
8909;SDS011;4490;49.072;8.804;2023-05-21T01:48:06;26.87;;;23.27;;
8909;SDS011;4490;49.072;8.804;2023-05-21T01:50:34;27.83;;;24.87;;
8909;SDS011;4490;49.072;8.804;2023-05-21T01:53:01;26.30;;;23.33;;
8909;SDS011;4490;49.072;8.804;2023-05-21T01:55:29;26.50;;;23.27;;
8909;SDS011;4490;49.072;8.804;2023-05-21T01:57:56;29.23;;;23.90;;
8909;SDS011;4490;49.072;8.804;2023-05-21T02:00:22;30.80;;;25.40;;
8909;SDS011;4490;49.072;8.804;2023-05-21T02:02:49;27.90;;;24.50;;
8909;SDS011;4490;49.072;8.804;2023-05-21T02:05:15;30.20;;;26.30;;
8909;SDS011;4490;49.072;8.804;2023-05-21T02:07:41;28.17;;;25.13;;
8909;SDS011;4490;49.072;8.804;2023-05-21T02:10:09;29.30;;;24.53;;
8909;SDS011;4490;49.072;8.804;2023-05-21T02:12:35;26.93;;;24.03;;
8909;SDS011;4490;49.072;8.804;2023-05-21T02:15:01;29.40;;;24.53;;
8909;SDS011;4490;49.072;8.804;2023-05-21T02:17:27;28.33;;;24.97;;
8909;SDS011;4490;49.072;8.804;2023-05-21T02:19:58;27.07;;;24.17;;
8909;SDS011;4490;49.072;8.804;2023-05-21T02:22:32;29.13;;;23.93;;
8909;SDS011;4490;49.072;8.804;2023-05-21T02:24:58;26.13;;;23.20;;
8909;SDS011;4490;49.072;8.804;2023-05-21T02:27:24;26.97;;;23.43;;
8909;SDS011;4490;49.072;8.804;2023-05-21T02:29:50;26.93;;;23.33;;
8909;SDS011;4490;49.072;8.804;2023-05-21T02:32:16;26.23;;;22.27;;
8909;SDS011;4490;49.072;8.804;2023-05-21T02:34:41;31.17;;;25.70;;
8909;SDS011;4490;49.072;8.804;2023-05-21T02:37:08;27.83;;;24.17;;
8909;SDS011;4490;49.072;8.804;2023-05-21T02:39:35;27.63;;;23.83;;
8909;SDS011;4490;49.072;8.804;2023-05-21T02:42:01;27.17;;;23.80;;
8909;SDS011;4490;49.072;8.804;2023-05-21T02:44:26;27.13;;;22.97;;
8909;SDS011;4490;49.072;8.804;2023-05-21T02:46:52;28.47;;;24.83;;
8909;SDS011;4490;49.072;8.804;2023-05-21T02:49:17;26.93;;;23.33;;
8909;SDS011;4490;49.072;8.804;2023-05-21T02:51:43;25.80;;;22.63;;
8909;SDS011;4490;49.072;8.804;2023-05-21T02:54:09;27.83;;;23.47;;
8909;SDS011;4490;49.072;8.804;2023-05-21T02:56:34;24.83;;;22.23;;
8909;SDS011;4490;49.072;8.804;2023-05-21T02:59:00;26.43;;;23.23;;
8909;SDS011;4490;49.072;8.804;2023-05-21T03:01:25;26.83;;;23.10;;
8909;SDS011;4490;49.072;8.804;2023-05-21T03:03:51;26.53;;;22.93;;
8909;SDS011;4490;49.072;8.804;2023-05-21T03:06:16;29.60;;;23.27;;
8909;SDS011;4490;49.072;8.804;2023-05-21T03:08:42;25.10;;;21.97;;
8909;SDS011;4490;49.072;8.804;2023-05-21T03:11:08;26.33;;;23.00;;
8909;SDS011;4490;49.072;8.804;2023-05-21T03:13:33;26.37;;;23.30;;
8909;SDS011;4490;49.072;8.804;2023-05-21T03:15:59;27.57;;;23.80;;
8909;SDS011;4490;49.072;8.804;2023-05-21T03:18:25;26.13;;;22.50;;
8909;SDS011;4490;49.072;8.804;2023-05-21T03:20:50;25.70;;;22.60;;
8909;SDS011;4490;49.072;8.804;2023-05-21T03:23:16;24.57;;;21.40;;
8909;SDS011;4490;49.072;8.804;2023-05-21T03:25:42;24.70;;;20.87;;
8909;SDS011;4490;49.072;8.804;2023-05-21T03:28:07;24.87;;;22.17;;
8909;SDS011;4490;49.072;8.804;2023-05-21T03:30:34;23.93;;;21.33;;
8909;SDS011;4490;49.072;8.804;2023-05-21T03:33:00;26.17;;;22.50;;
8909;SDS011;4490;49.072;8.804;2023-05-21T03:35:27;25.07;;;22.37;;
8909;SDS011;4490;49.072;8.804;2023-05-21T03:37:52;25.87;;;21.77;;
8909;SDS011;4490;49.072;8.804;2023-05-21T03:40:18;25.43;;;22.73;;
8909;SDS011;4490;49.072;8.804;2023-05-21T03:42:45;25.27;;;22.57;;
8909;SDS011;4490;49.072;8.804;2023-05-21T03:45:11;27.50;;;22.07;;
8909;SDS011;4490;49.072;8.804;2023-05-21T03:47:37;27.67;;;23.33;;
8909;SDS011;4490;49.072;8.804;2023-05-21T03:50:03;28.03;;;21.30;;
8909;SDS011;4490;49.072;8.804;2023-05-21T03:52:29;25.20;;;22.23;;
8909;SDS011;4490;49.072;8.804;2023-05-21T03:54:55;24.20;;;21.37;;
8909;SDS011;4490;49.072;8.804;2023-05-21T03:57:21;34.97;;;22.13;;
8909;SDS011;4490;49.072;8.804;2023-05-21T03:59:46;24.20;;;21.53;;
8909;SDS011;4490;49.072;8.804;2023-05-21T04:02:12;27.13;;;23.33;;
8909;SDS011;4490;49.072;8.804;2023-05-21T04:04:37;26.33;;;23.03;;
8909;SDS011;4490;49.072;8.804;2023-05-21T04:07:03;28.47;;;22.40;;
8909;SDS011;4490;49.072;8.804;2023-05-21T04:09:29;25.30;;;22.17;;
8909;SDS011;4490;49.072;8.804;2023-05-21T04:11:54;27.73;;;22.20;;
8909;SDS011;4490;49.072;8.804;2023-05-21T04:14:21;24.43;;;20.97;;
8909;SDS011;4490;49.072;8.804;2023-05-21T04:16:47;26.10;;;21.67;;
8909;SDS011;4490;49.072;8.804;2023-05-21T04:19:13;24.97;;;21.13;;
8909;SDS011;4490;49.072;8.804;2023-05-21T04:21:38;25.07;;;21.73;;
8909;SDS011;4490;49.072;8.804;2023-05-21T04:24:04;23.63;;;21.10;;
8909;SDS011;4490;49.072;8.804;2023-05-21T04:26:30;27.30;;;22.80;;
8909;SDS011;4490;49.072;8.804;2023-05-21T04:28:58;26.30;;;22.00;;
8909;SDS011;4490;49.072;8.804;2023-05-21T04:31:23;26.47;;;22.20;;
8909;SDS011;4490;49.072;8.804;2023-05-21T04:33:49;26.93;;;22.40;;
8909;SDS011;4490;49.072;8.804;2023-05-21T04:36:15;25.77;;;22.20;;
8909;SDS011;4490;49.072;8.804;2023-05-21T04:38:41;25.07;;;21.87;;
8909;SDS011;4490;49.072;8.804;2023-05-21T04:41:07;24.60;;;21.90;;
8909;SDS011;4490;49.072;8.804;2023-05-21T04:43:34;25.27;;;22.53;;
8909;SDS011;4490;49.072;8.804;2023-05-21T04:46:00;26.07;;;22.83;;
8909;SDS011;4490;49.072;8.804;2023-05-21T04:48:26;24.23;;;21.40;;
8909;SDS011;4490;49.072;8.804;2023-05-21T04:50:52;24.67;;;21.67;;
8909;SDS011;4490;49.072;8.804;2023-05-21T04:53:19;27.60;;;21.90;;
8909;SDS011;4490;49.072;8.804;2023-05-21T04:55:46;29.13;;;23.73;;
8909;SDS011;4490;49.072;8.804;2023-05-21T04:58:11;28.67;;;24.10;;
8909;SDS011;4490;49.072;8.804;2023-05-21T05:00:37;27.37;;;23.50;;
8909;SDS011;4490;49.072;8.804;2023-05-21T05:03:06;26.63;;;23.73;;
8909;SDS011;4490;49.072;8.804;2023-05-21T05:05:31;25.47;;;22.70;;
8909;SDS011;4490;49.072;8.804;2023-05-21T05:07:57;27.63;;;23.17;;
8909;SDS011;4490;49.072;8.804;2023-05-21T05:10:22;26.53;;;23.20;;
8909;SDS011;4490;49.072;8.804;2023-05-21T05:12:48;25.23;;;22.13;;
8909;SDS011;4490;49.072;8.804;2023-05-21T05:15:14;25.33;;;21.67;;
8909;SDS011;4490;49.072;8.804;2023-05-21T05:17:40;23.07;;;20.50;;
8909;SDS011;4490;49.072;8.804;2023-05-21T05:20:06;24.40;;;21.17;;
8909;SDS011;4490;49.072;8.804;2023-05-21T05:22:32;24.07;;;21.47;;
8909;SDS011;4490;49.072;8.804;2023-05-21T05:24:58;26.27;;;21.20;;
8909;SDS011;4490;49.072;8.804;2023-05-21T05:27:23;24.83;;;20.80;;
8909;SDS011;4490;49.072;8.804;2023-05-21T05:29:49;24.17;;;21.67;;
8909;SDS011;4490;49.072;8.804;2023-05-21T05:32:15;24.07;;;21.20;;
8909;SDS011;4490;49.072;8.804;2023-05-21T05:34:40;25.23;;;21.23;;
8909;SDS011;4490;49.072;8.804;2023-05-21T05:37:06;24.00;;;20.97;;
8909;SDS011;4490;49.072;8.804;2023-05-21T05:39:32;28.63;;;21.67;;
8909;SDS011;4490;49.072;8.804;2023-05-21T05:41:58;24.60;;;21.77;;
8909;SDS011;4490;49.072;8.804;2023-05-21T05:44:23;27.17;;;23.67;;
8909;SDS011;4490;49.072;8.804;2023-05-21T05:46:49;26.50;;;22.90;;
8909;SDS011;4490;49.072;8.804;2023-05-21T05:49:15;28.03;;;25.03;;
8909;SDS011;4490;49.072;8.804;2023-05-21T05:51:40;27.37;;;23.77;;
8909;SDS011;4490;49.072;8.804;2023-05-21T05:54:06;27.60;;;23.80;;
8909;SDS011;4490;49.072;8.804;2023-05-21T05:56:32;29.03;;;24.17;;
8909;SDS011;4490;49.072;8.804;2023-05-21T05:58:58;29.97;;;25.90;;
8909;SDS011;4490;49.072;8.804;2023-05-21T06:01:23;28.60;;;25.03;;
8909;SDS011;4490;49.072;8.804;2023-05-21T06:03:50;27.73;;;24.73;;
8909;SDS011;4490;49.072;8.804;2023-05-21T06:06:16;27.40;;;24.33;;
8909;SDS011;4490;49.072;8.804;2023-05-21T06:08:41;26.67;;;23.77;;
8909;SDS011;4490;49.072;8.804;2023-05-21T06:11:07;27.57;;;24.60;;
8909;SDS011;4490;49.072;8.804;2023-05-21T06:13:33;26.80;;;24.00;;
8909;SDS011;4490;49.072;8.804;2023-05-21T06:15:59;26.70;;;23.97;;
8909;SDS011;4490;49.072;8.804;2023-05-21T06:18:25;27.93;;;23.20;;
8909;SDS011;4490;49.072;8.804;2023-05-21T06:20:51;24.53;;;21.93;;
8909;SDS011;4490;49.072;8.804;2023-05-21T06:23:16;26.03;;;23.20;;
8909;SDS011;4490;49.072;8.804;2023-05-21T06:25:42;25.47;;;22.50;;
8909;SDS011;4490;49.072;8.804;2023-05-21T06:28:08;27.57;;;22.70;;
8909;SDS011;4490;49.072;8.804;2023-05-21T06:30:33;26.70;;;23.73;;
8909;SDS011;4490;49.072;8.804;2023-05-21T06:32:59;25.47;;;22.70;;
8909;SDS011;4490;49.072;8.804;2023-05-21T06:35:25;25.50;;;22.70;;
8909;SDS011;4490;49.072;8.804;2023-05-21T06:37:50;26.63;;;23.73;;
8909;SDS011;4490;49.072;8.804;2023-05-21T06:40:16;26.97;;;23.23;;
8909;SDS011;4490;49.072;8.804;2023-05-21T06:42:42;26.20;;;22.43;;
8909;SDS011;4490;49.072;8.804;2023-05-21T06:45:07;24.23;;;21.73;;
8909;SDS011;4490;49.072;8.804;2023-05-21T06:47:33;23.50;;;20.77;;
8909;SDS011;4490;49.072;8.804;2023-05-21T06:49:59;23.73;;;21.07;;
8909;SDS011;4490;49.072;8.804;2023-05-21T06:52:24;22.77;;;20.30;;
8909;SDS011;4490;49.072;8.804;2023-05-21T06:54:51;21.27;;;19.07;;
8909;SDS011;4490;49.072;8.804;2023-05-21T06:57:16;22.10;;;19.83;;
8909;SDS011;4490;49.072;8.804;2023-05-21T06:59:42;20.83;;;18.70;;
8909;SDS011;4490;49.072;8.804;2023-05-21T07:02:08;19.80;;;17.00;;
8909;SDS011;4490;49.072;8.804;2023-05-21T07:04:33;18.87;;;16.80;;
8909;SDS011;4490;49.072;8.804;2023-05-21T07:06:59;20.27;;;16.97;;
8909;SDS011;4490;49.072;8.804;2023-05-21T07:09:25;18.03;;;16.13;;
8909;SDS011;4490;49.072;8.804;2023-05-21T07:11:51;18.17;;;16.13;;
8909;SDS011;4490;49.072;8.804;2023-05-21T07:14:17;16.13;;;14.50;;
8909;SDS011;4490;49.072;8.804;2023-05-21T07:16:43;16.90;;;15.00;;
8909;SDS011;4490;49.072;8.804;2023-05-21T07:19:09;16.33;;;14.63;;
8909;SDS011;4490;49.072;8.804;2023-05-21T07:21:34;15.30;;;13.53;;
8909;SDS011;4490;49.072;8.804;2023-05-21T07:24:00;15.43;;;13.40;;
8909;SDS011;4490;49.072;8.804;2023-05-21T07:26:26;14.97;;;13.40;;
8909;SDS011;4490;49.072;8.804;2023-05-21T07:28:51;14.93;;;13.33;;
8909;SDS011;4490;49.072;8.804;2023-05-21T07:31:17;15.43;;;13.83;;
8909;SDS011;4490;49.072;8.804;2023-05-21T07:33:42;14.55;;;13.18;;
8909;SDS011;4490;49.072;8.804;2023-05-21T07:36:08;14.35;;;12.85;;
8909;SDS011;4490;49.072;8.804;2023-05-21T07:38:33;15.65;;;14.05;;
8909;SDS011;4490;49.072;8.804;2023-05-21T07:40:59;14.88;;;13.23;;
8909;SDS011;4490;49.072;8.804;2023-05-21T07:43:25;14.63;;;13.20;;
8909;SDS011;4490;49.072;8.804;2023-05-21T07:45:50;15.00;;;13.25;;
8909;SDS011;4490;49.072;8.804;2023-05-21T07:48:16;14.05;;;12.65;;
8909;SDS011;4490;49.072;8.804;2023-05-21T07:50:42;16.48;;;13.00;;
8909;SDS011;4490;49.072;8.804;2023-05-21T07:53:08;14.95;;;13.38;;
8909;SDS011;4490;49.072;8.804;2023-05-21T07:55:34;13.80;;;12.50;;
8909;SDS011;4490;49.072;8.804;2023-05-21T07:58:00;13.82;;;12.43;;
8909;SDS011;4490;49.072;8.804;2023-05-21T08:00:25;14.23;;;12.70;;
8909;SDS011;4490;49.072;8.804;2023-05-21T08:02:51;13.82;;;12.32;;
8909;SDS011;4490;49.072;8.804;2023-05-21T08:05:17;13.95;;;12.70;;
8909;SDS011;4490;49.072;8.804;2023-05-21T08:07:43;14.18;;;12.68;;
8909;SDS011;4490;49.072;8.804;2023-05-21T08:10:09;12.73;;;11.52;;
8909;SDS011;4490;49.072;8.804;2023-05-21T08:12:34;12.95;;;11.75;;
8909;SDS011;4490;49.072;8.804;2023-05-21T08:15:00;13.88;;;12.52;;
8909;SDS011;4490;49.072;8.804;2023-05-21T08:17:25;14.85;;;12.68;;
8909;SDS011;4490;49.072;8.804;2023-05-21T08:19:52;15.15;;;11.38;;
8909;SDS011;4490;49.072;8.804;2023-05-21T08:22:18;12.02;;;10.88;;
8909;SDS011;4490;49.072;8.804;2023-05-21T08:24:43;11.27;;;10.15;;
8909;SDS011;4490;49.072;8.804;2023-05-21T08:27:09;12.20;;;10.50;;
8909;SDS011;4490;49.072;8.804;2023-05-21T08:29:35;12.15;;;10.57;;
8909;SDS011;4490;49.072;8.804;2023-05-21T08:32:01;11.48;;;10.30;;
8909;SDS011;4490;49.072;8.804;2023-05-21T08:34:26;12.77;;;10.05;;
8909;SDS011;4490;49.072;8.804;2023-05-21T08:36:52;10.63;;;9.52;;
8909;SDS011;4490;49.072;8.804;2023-05-21T08:39:18;12.48;;;10.07;;
8909;SDS011;4490;49.072;8.804;2023-05-21T08:41:43;10.82;;;9.80;;
8909;SDS011;4490;49.072;8.804;2023-05-21T08:44:13;11.18;;;10.07;;
8909;SDS011;4490;49.072;8.804;2023-05-21T08:46:40;11.40;;;10.30;;
8909;SDS011;4490;49.072;8.804;2023-05-21T08:49:12;14.70;;;10.80;;
8909;SDS011;4490;49.072;8.804;2023-05-21T08:51:39;10.95;;;9.80;;
8909;SDS011;4490;49.072;8.804;2023-05-21T08:54:06;10.80;;;9.80;;
8909;SDS011;4490;49.072;8.804;2023-05-21T08:56:33;10.45;;;9.45;;
8909;SDS011;4490;49.072;8.804;2023-05-21T08:58:59;12.27;;;10.15;;
8909;SDS011;4490;49.072;8.804;2023-05-21T09:01:26;11.23;;;10.10;;
8909;SDS011;4490;49.072;8.804;2023-05-21T09:03:52;11.23;;;10.23;;
8909;SDS011;4490;49.072;8.804;2023-05-21T09:06:21;10.95;;;9.85;;
8909;SDS011;4490;49.072;8.804;2023-05-21T09:08:52;11.02;;;9.98;;
8909;SDS011;4490;49.072;8.804;2023-05-21T09:11:24;10.50;;;9.43;;
8909;SDS011;4490;49.072;8.804;2023-05-21T09:13:50;9.93;;;9.00;;
8909;SDS011;4490;49.072;8.804;2023-05-21T09:16:17;9.93;;;9.02;;
8909;SDS011;4490;49.072;8.804;2023-05-21T09:18:43;10.02;;;9.10;;
8909;SDS011;4490;49.072;8.804;2023-05-21T09:21:22;9.82;;;8.82;;
8909;SDS011;4490;49.072;8.804;2023-05-21T09:23:55;10.10;;;9.18;;
8909;SDS011;4490;49.072;8.804;2023-05-21T09:26:22;10.15;;;9.23;;
8909;SDS011;4490;49.072;8.804;2023-05-21T09:28:49;10.38;;;9.48;;
8909;SDS011;4490;49.072;8.804;2023-05-21T09:31:15;10.70;;;9.70;;
8909;SDS011;4490;49.072;8.804;2023-05-21T09:33:44;10.18;;;9.27;;
8909;SDS011;4490;49.072;8.804;2023-05-21T09:36:13;10.82;;;9.68;;
8909;SDS011;4490;49.072;8.804;2023-05-21T09:38:41;11.13;;;10.02;;
8909;SDS011;4490;49.072;8.804;2023-05-21T09:41:09;10.32;;;9.43;;
8909;SDS011;4490;49.072;8.804;2023-05-21T09:43:35;11.07;;;10.05;;
8909;SDS011;4490;49.072;8.804;2023-05-21T09:46:01;10.95;;;10.00;;
8909;SDS011;4490;49.072;8.804;2023-05-21T09:48:37;11.70;;;10.60;;
8909;SDS011;4490;49.072;8.804;2023-05-21T09:51:16;11.60;;;10.40;;
8909;SDS011;4490;49.072;8.804;2023-05-21T09:56:22;11.82;;;10.63;;
8909;SDS011;4490;49.072;8.804;2023-05-21T09:58:55;10.95;;;9.13;;
8909;SDS011;4490;49.072;8.804;2023-05-21T10:01:22;9.95;;;8.95;;
8909;SDS011;4490;49.072;8.804;2023-05-21T10:03:49;9.90;;;8.90;;
8909;SDS011;4490;49.072;8.804;2023-05-21T10:06:20;9.63;;;8.73;;
8909;SDS011;4490;49.072;8.804;2023-05-21T10:08:48;10.00;;;9.10;;
8909;SDS011;4490;49.072;8.804;2023-05-21T10:11:18;9.77;;;8.88;;
8909;SDS011;4490;49.072;8.804;2023-05-21T10:13:47;10.40;;;9.50;;
8909;SDS011;4490;49.072;8.804;2023-05-21T10:16:18;10.90;;;8.98;;
8909;SDS011;4490;49.072;8.804;2023-05-21T10:18:43;9.68;;;8.80;;
8909;SDS011;4490;49.072;8.804;2023-05-21T10:21:11;9.82;;;8.88;;
8909;SDS011;4490;49.072;8.804;2023-05-21T10:23:37;9.77;;;8.82;;
8909;SDS011;4490;49.072;8.804;2023-05-21T10:26:03;9.48;;;8.57;;
8909;SDS011;4490;49.072;8.804;2023-05-21T10:28:30;9.68;;;8.80;;
8909;SDS011;4490;49.072;8.804;2023-05-21T10:30:57;10.68;;;9.57;;
8909;SDS011;4490;49.072;8.804;2023-05-21T10:33:23;10.00;;;9.00;;
8909;SDS011;4490;49.072;8.804;2023-05-21T10:35:50;9.85;;;8.95;;
8909;SDS011;4490;49.072;8.804;2023-05-21T10:38:18;10.10;;;9.10;;
8909;SDS011;4490;49.072;8.804;2023-05-21T10:40:45;9.95;;;8.98;;
8909;SDS011;4490;49.072;8.804;2023-05-21T10:51:55;9.90;;;8.73;;
8909;SDS011;4490;49.072;8.804;2023-05-21T10:59:53;8.85;;;8.07;;
8909;SDS011;4490;49.072;8.804;2023-05-21T11:02:19;9.10;;;8.20;;
8909;SDS011;4490;49.072;8.804;2023-05-21T11:04:45;7.82;;;7.13;;
8909;SDS011;4490;49.072;8.804;2023-05-21T11:07:13;8.55;;;7.85;;
8909;SDS011;4490;49.072;8.804;2023-05-21T11:09:39;8.95;;;8.18;;
8909;SDS011;4490;49.072;8.804;2023-05-21T11:12:05;8.70;;;7.90;;
8909;SDS011;4490;49.072;8.804;2023-05-21T11:14:34;8.90;;;8.10;;
8909;SDS011;4490;49.072;8.804;2023-05-21T11:17:11;9.02;;;7.78;;
8909;SDS011;4490;49.072;8.804;2023-05-21T11:19:40;8.32;;;7.57;;
8909;SDS011;4490;49.072;8.804;2023-05-21T11:22:24;9.32;;;7.57;;
8909;SDS011;4490;49.072;8.804;2023-05-21T11:24:51;8.50;;;7.68;;
8909;SDS011;4490;49.072;8.804;2023-05-21T11:27:34;8.45;;;7.75;;
8909;SDS011;4490;49.072;8.804;2023-05-21T11:30:17;8.93;;;8.13;;
8909;SDS011;4490;49.072;8.804;2023-05-21T11:35:45;9.18;;;7.55;;
8909;SDS011;4490;49.072;8.804;2023-05-21T11:38:28;8.82;;;8.02;;
8909;SDS011;4490;49.072;8.804;2023-05-21T11:41:02;8.60;;;7.70;;
8909;SDS011;4490;49.072;8.804;2023-05-21T11:43:28;8.13;;;7.32;;
8909;SDS011;4490;49.072;8.804;2023-05-21T11:45:53;9.57;;;7.65;;
8909;SDS011;4490;49.072;8.804;2023-05-21T11:48:28;8.43;;;7.72;;
8909;SDS011;4490;49.072;8.804;2023-05-21T11:50:56;8.27;;;7.47;;
8909;SDS011;4490;49.072;8.804;2023-05-21T11:53:21;7.70;;;7.10;;
8909;SDS011;4490;49.072;8.804;2023-05-21T11:55:47;8.43;;;7.68;;
8909;SDS011;4490;49.072;8.804;2023-05-21T11:58:14;8.18;;;7.40;;
8909;SDS011;4490;49.072;8.804;2023-05-21T12:00:43;7.90;;;7.20;;
8909;SDS011;4490;49.072;8.804;2023-05-21T12:03:12;9.18;;;8.27;;
8909;SDS011;4490;49.072;8.804;2023-05-21T12:05:45;8.32;;;7.53;;
8909;SDS011;4490;49.072;8.804;2023-05-21T12:08:11;9.18;;;7.68;;
8909;SDS011;4490;49.072;8.804;2023-05-21T12:10:37;9.52;;;7.65;;
8909;SDS011;4490;49.072;8.804;2023-05-21T12:13:04;8.25;;;7.55;;
8909;SDS011;4490;49.072;8.804;2023-05-21T12:15:30;8.93;;;8.02;;
8909;SDS011;4490;49.072;8.804;2023-05-21T12:17:56;8.32;;;7.60;;
8909;SDS011;4490;49.072;8.804;2023-05-21T12:20:22;8.32;;;7.50;;
8909;SDS011;4490;49.072;8.804;2023-05-21T12:22:50;8.70;;;7.75;;
8909;SDS011;4490;49.072;8.804;2023-05-21T12:25:17;9.43;;;7.28;;
8909;SDS011;4490;49.072;8.804;2023-05-21T12:27:46;8.35;;;7.50;;
8909;SDS011;4490;49.072;8.804;2023-05-21T12:30:13;7.90;;;7.10;;
8909;SDS011;4490;49.072;8.804;2023-05-21T12:32:39;7.82;;;6.97;;
8909;SDS011;4490;49.072;8.804;2023-05-21T12:35:07;8.38;;;7.55;;
8909;SDS011;4490;49.072;8.804;2023-05-21T12:37:33;7.90;;;7.30;;
8909;SDS011;4490;49.072;8.804;2023-05-21T12:40:00;7.40;;;6.70;;
8909;SDS011;4490;49.072;8.804;2023-05-21T12:42:31;7.45;;;6.78;;
8909;SDS011;4490;49.072;8.804;2023-05-21T12:45:01;7.60;;;6.82;;
8909;SDS011;4490;49.072;8.804;2023-05-21T12:47:30;7.68;;;7.07;;
8909;SDS011;4490;49.072;8.804;2023-05-21T12:49:57;7.57;;;6.88;;
8909;SDS011;4490;49.072;8.804;2023-05-21T12:52:25;7.18;;;6.45;;
8909;SDS011;4490;49.072;8.804;2023-05-21T12:54:52;7.57;;;6.78;;
8909;SDS011;4490;49.072;8.804;2023-05-21T12:57:22;7.88;;;7.18;;
8909;SDS011;4490;49.072;8.804;2023-05-21T12:59:59;7.47;;;6.78;;
8909;SDS011;4490;49.072;8.804;2023-05-21T13:02:38;7.60;;;6.88;;
8909;SDS011;4490;49.072;8.804;2023-05-21T13:05:08;9.25;;;7.50;;
8909;SDS011;4490;49.072;8.804;2023-05-21T13:07:38;7.47;;;6.88;;
8909;SDS011;4490;49.072;8.804;2023-05-21T13:10:04;7.35;;;6.75;;
8909;SDS011;4490;49.072;8.804;2023-05-21T13:12:31;7.65;;;7.05;;
8909;SDS011;4490;49.072;8.804;2023-05-21T13:14:58;8.38;;;7.57;;
8909;SDS011;4490;49.072;8.804;2023-05-21T13:17:25;7.97;;;7.28;;
8909;SDS011;4490;49.072;8.804;2023-05-21T13:25:10;8.25;;;7.43;;
8909;SDS011;4490;49.072;8.804;2023-05-21T13:27:40;7.80;;;7.20;;
8909;SDS011;4490;49.072;8.804;2023-05-21T13:30:06;7.55;;;6.95;;
8909;SDS011;4490;49.072;8.804;2023-05-21T13:32:33;7.95;;;7.25;;
8909;SDS011;4490;49.072;8.804;2023-05-21T13:34:59;7.65;;;7.00;;
8909;SDS011;4490;49.072;8.804;2023-05-21T13:37:25;8.60;;;7.80;;
8909;SDS011;4490;49.072;8.804;2023-05-21T13:39:50;8.00;;;7.05;;
8909;SDS011;4490;49.072;8.804;2023-05-21T13:42:16;8.20;;;7.50;;
8909;SDS011;4490;49.072;8.804;2023-05-21T13:44:42;11.13;;;7.18;;
8909;SDS011;4490;49.072;8.804;2023-05-21T13:47:07;8.07;;;7.45;;
8909;SDS011;4490;49.072;8.804;2023-05-21T13:49:34;8.30;;;7.60;;
8909;SDS011;4490;49.072;8.804;2023-05-21T13:52:00;7.45;;;6.85;;
8909;SDS011;4490;49.072;8.804;2023-05-21T13:54:27;8.18;;;7.47;;
8909;SDS011;4490;49.072;8.804;2023-05-21T13:56:53;8.10;;;7.40;;
8909;SDS011;4490;49.072;8.804;2023-05-21T13:59:19;7.93;;;7.13;;
8909;SDS011;4490;49.072;8.804;2023-05-21T14:01:45;9.10;;;8.27;;
8909;SDS011;4490;49.072;8.804;2023-05-21T14:04:12;10.05;;;7.90;;
8909;SDS011;4490;49.072;8.804;2023-05-21T14:06:39;7.53;;;6.85;;
8909;SDS011;4490;49.072;8.804;2023-05-21T14:09:05;8.95;;;7.53;;
8909;SDS011;4490;49.072;8.804;2023-05-21T14:11:32;8.48;;;7.68;;
8909;SDS011;4490;49.072;8.804;2023-05-21T14:13:57;8.98;;;7.70;;
8909;SDS011;4490;49.072;8.804;2023-05-21T14:16:24;8.50;;;7.70;;
8909;SDS011;4490;49.072;8.804;2023-05-21T14:18:51;8.57;;;7.68;;
8909;SDS011;4490;49.072;8.804;2023-05-21T14:21:18;8.73;;;7.63;;
8909;SDS011;4490;49.072;8.804;2023-05-21T14:23:43;8.57;;;7.78;;
8909;SDS011;4490;49.072;8.804;2023-05-21T14:26:09;9.38;;;8.40;;
8909;SDS011;4490;49.072;8.804;2023-05-21T14:28:35;8.80;;;7.88;;
8909;SDS011;4490;49.072;8.804;2023-05-21T14:31:01;7.68;;;7.03;;
8909;SDS011;4490;49.072;8.804;2023-05-21T14:33:26;10.43;;;7.28;;
8909;SDS011;4490;49.072;8.804;2023-05-21T14:35:52;7.85;;;7.15;;
8909;SDS011;4490;49.072;8.804;2023-05-21T14:38:18;8.27;;;7.43;;
8909;SDS011;4490;49.072;8.804;2023-05-21T14:40:43;8.73;;;7.93;;
8909;SDS011;4490;49.072;8.804;2023-05-21T14:43:09;8.27;;;7.50;;
8909;SDS011;4490;49.072;8.804;2023-05-21T14:45:35;7.85;;;7.20;;
8909;SDS011;4490;49.072;8.804;2023-05-21T14:48:01;8.32;;;7.50;;
8909;SDS011;4490;49.072;8.804;2023-05-21T14:50:32;8.25;;;7.53;;
8909;SDS011;4490;49.072;8.804;2023-05-21T14:53:01;8.82;;;8.02;;
8909;SDS011;4490;49.072;8.804;2023-05-21T14:55:36;7.90;;;7.10;;
8909;SDS011;4490;49.072;8.804;2023-05-21T14:58:05;8.93;;;8.02;;
8909;SDS011;4490;49.072;8.804;2023-05-21T15:00:31;8.68;;;7.90;;
8909;SDS011;4490;49.072;8.804;2023-05-21T15:02:58;8.10;;;7.40;;
8909;SDS011;4490;49.072;8.804;2023-05-21T15:05:24;8.25;;;7.45;;
8909;SDS011;4490;49.072;8.804;2023-05-21T15:07:52;8.40;;;7.40;;
8909;SDS011;4490;49.072;8.804;2023-05-21T15:10:20;8.73;;;7.82;;
8909;SDS011;4490;49.072;8.804;2023-05-21T15:12:45;10.52;;;7.80;;
8909;SDS011;4490;49.072;8.804;2023-05-21T15:15:11;8.38;;;7.53;;
8909;SDS011;4490;49.072;8.804;2023-05-21T15:17:37;8.20;;;7.50;;
8909;SDS011;4490;49.072;8.804;2023-05-21T15:20:04;8.13;;;7.35;;
8909;SDS011;4490;49.072;8.804;2023-05-21T15:22:30;7.82;;;7.03;;
8909;SDS011;4490;49.072;8.804;2023-05-21T15:24:56;8.18;;;7.45;;
8909;SDS011;4490;49.072;8.804;2023-05-21T15:27:21;8.38;;;7.68;;